Time;durP1;ratioP1;P1;durP2;ratioP2;P2;SDS_P1;SDS_P2;PMS_P1;PMS_P2;Temp;Humidity;BMP_temperature;BMP_pressure;BME280_temperature;BME280_humidity;BME280_pressure;Samples;Min_cycle;Max_cycle;Signal;HPM_P1;HPM_P2
2023/04/08 04:00:32;;;;;;;4.43;4.13;;;6.20;99.90;;;;;;5766394;23;20244;-67
2023/04/08 04:03:00;;;;;;;3.33;3.22;;;6.30;99.90;;;;;;4854146;29;20220;-67
2023/04/08 04:05:27;;;;;;;3.50;2.83;;;6.30;99.90;;;;;;4859562;29;20213;-66
2023/04/08 04:07:53;;;;;;;2.08;1.85;;;6.30;99.90;;;;;;4863140;29;20218;-67
2023/04/08 04:10:20;;;;;;;5.97;2.88;;;6.30;99.90;;;;;;4866691;29;20216;-66
2023/04/08 04:12:47;;;;;;;4.57;3.47;;;6.30;99.90;;;;;;4868138;29;20200;-66
2023/04/08 04:15:14;;;;;;;4.75;4.32;;;6.30;99.90;;;;;;4858023;29;20224;-67
2023/04/08 04:17:42;;;;;;;8.55;4.03;;;6.30;99.90;;;;;;4891656;23;20226;-69
2023/04/08 04:20:10;;;;;;;6.32;3.58;;;6.20;99.90;;;;;;4900731;29;20240;-69
2023/04/08 04:22:36;;;;;;;3.53;3.33;;;6.20;99.90;;;;;;4887661;29;20306;-70
2023/04/08 04:25:03;;;;;;;2.35;2.35;;;6.20;99.90;;;;;;4894467;29;20203;-69
2023/04/08 04:27:30;;;;;;;4.03;2.75;;;6.20;99.90;;;;;;4896540;29;20722;-69
2023/04/08 04:29:56;;;;;;;3.78;3.45;;;6.20;99.90;;;;;;4883236;29;20215;-69
2023/04/08 04:32:23;;;;;;;2.95;2.72;;;6.20;99.90;;;;;;4886124;29;20593;-69
2023/04/08 04:34:51;;;;;;;4.13;3.92;;;6.20;99.90;;;;;;4891219;29;20251;-68
2023/04/08 04:37:18;;;;;;;3.60;3.30;;;6.20;99.90;;;;;;4882501;29;20322;-69
2023/04/08 04:39:45;;;;;;;12.63;4.82;;;6.20;99.90;;;;;;4900729;29;20204;-69
2023/04/08 04:42:11;;;;;;;6.25;5.65;;;6.30;99.90;;;;;;4898246;29;20699;-69
2023/04/08 04:44:38;;;;;;;2.42;2.33;;;6.20;99.90;;;;;;4902196;29;20211;-69
2023/04/08 04:47:05;;;;;;;2.35;2.15;;;6.20;99.90;;;;;;4891373;29;20245;-69
2023/04/08 04:49:32;;;;;;;4.70;4.00;;;6.20;99.90;;;;;;4898778;29;20228;-69
2023/04/08 04:52:00;;;;;;;7.35;3.80;;;6.20;99.90;;;;;;4894033;29;20215;-70
2023/04/08 04:54:27;;;;;;;3.63;2.88;;;6.20;99.90;;;;;;4891221;29;20236;-70
2023/04/08 04:56:53;;;;;;;5.82;2.63;;;6.10;99.90;;;;;;4896259;29;20211;-70
2023/04/08 04:59:20;;;;;;;3.40;3.05;;;6.10;99.90;;;;;;4882409;29;20212;-70
2023/04/08 05:01:47;;;;;;;3.97;3.72;;;6.10;99.90;;;;;;4889592;29;20262;-70
2023/04/08 05:04:14;;;;;;;4.30;3.90;;;6.10;99.90;;;;;;4889314;29;20215;-70
2023/04/08 05:06:41;;;;;;;3.50;2.60;;;6.10;99.90;;;;;;4902001;29;20204;-69
2023/04/08 05:09:09;;;;;;;3.03;2.25;;;6.10;99.90;;;;;;4889575;29;20216;-69
2023/04/08 05:11:36;;;;;;;5.45;2.95;;;6.00;99.90;;;;;;4884470;29;20218;-69
2023/04/08 05:14:02;;;;;;;3.97;3.72;;;6.00;99.90;;;;;;4895087;29;20684;-69
2023/04/08 05:16:29;;;;;;;6.13;3.20;;;6.00;99.90;;;;;;4905442;29;20241;-69
2023/04/08 05:18:56;;;;;;;6.47;4.78;;;6.00;99.90;;;;;;4903341;29;20536;-69
2023/04/08 05:21:23;;;;;;;3.95;3.65;;;6.00;99.90;;;;;;4883690;29;20212;-69
2023/04/08 05:23:51;;;;;;;4.82;2.30;;;6.00;99.90;;;;;;4884972;29;20332;-70
2023/04/08 05:26:20;;;;;;;3.95;3.13;;;6.00;99.90;;;;;;4891096;29;20203;-70
2023/04/08 05:28:47;;;;;;;3.15;2.95;;;6.10;99.90;;;;;;4902183;29;20231;-70
2023/04/08 05:31:15;;;;;;;6.38;5.05;;;6.10;99.90;;;;;;4880371;29;20231;-69
2023/04/08 05:33:42;;;;;;;7.15;3.42;;;6.10;99.90;;;;;;4895133;29;20203;-69
2023/04/08 05:36:10;;;;;;;4.32;3.75;;;6.10;99.90;;;;;;4895844;29;20239;-70
2023/04/08 05:38:37;;;;;;;9.68;4.40;;;6.10;99.90;;;;;;4896051;29;20234;-70
2023/04/08 05:41:04;;;;;;;7.35;4.05;;;6.10;99.90;;;;;;4883263;29;20608;-70
2023/04/08 05:43:33;;;;;;;6.57;3.75;;;6.10;99.90;;;;;;4880455;29;20231;-71
2023/04/08 05:46:00;;;;;;;2.65;2.08;;;6.10;99.90;;;;;;4893557;29;20549;-69
2023/04/08 05:48:26;;;;;;;3.60;3.40;;;6.10;99.90;;;;;;4905317;29;21145;-70
2023/04/08 05:50:53;;;;;;;6.93;4.00;;;6.20;99.90;;;;;;4885522;29;20211;-70
2023/04/08 05:53:20;;;;;;;3.63;3.33;;;6.20;99.90;;;;;;4901877;29;20227;-70
2023/04/08 05:55:46;;;;;;;2.75;2.40;;;6.20;99.90;;;;;;4894952;29;20608;-69
2023/04/08 05:58:13;;;;;;;4.60;4.30;;;6.20;99.90;;;;;;4897543;29;20230;-69
2023/04/08 06:00:41;;;;;;;3.90;3.45;;;6.20;99.90;;;;;;4883883;29;20211;-70
2023/04/08 06:03:08;;;;;;;5.82;2.60;;;6.20;99.90;;;;;;4911495;29;20221;-69
2023/04/08 06:05:35;;;;;;;5.35;4.97;;;6.20;99.90;;;;;;4896986;29;20210;-69
2023/04/08 06:08:01;;;;;;;3.08;2.88;;;6.10;99.90;;;;;;4902728;29;20231;-69
2023/04/08 06:10:28;;;;;;;4.95;4.50;;;6.10;99.90;;;;;;4884778;29;20208;-70
2023/04/08 06:12:55;;;;;;;2.47;2.28;;;6.10;99.90;;;;;;4892034;29;20216;-69
2023/04/08 06:15:22;;;;;;;4.53;3.40;;;6.10;99.90;;;;;;4909361;29;20226;-69
2023/04/08 06:17:50;;;;;;;3.95;3.60;;;6.10;99.90;;;;;;4892928;29;20241;-69
2023/04/08 06:20:17;;;;;;;7.00;4.75;;;6.10;99.90;;;;;;4903096;29;20243;-69
2023/04/08 06:22:44;;;;;;;1.85;1.83;;;6.10;99.90;;;;;;4889408;29;20210;-69
2023/04/08 06:25:10;;;;;;;5.47;3.08;;;6.00;99.90;;;;;;4889242;29;20206;-69
2023/04/08 06:27:37;;;;;;;3.42;3.20;;;6.00;99.90;;;;;;4898845;29;20231;-69
2023/04/08 06:30:04;;;;;;;7.20;3.05;;;6.10;99.90;;;;;;4892282;29;20219;-69
2023/04/08 06:32:31;;;;;;;9.15;4.45;;;6.10;99.90;;;;;;4889746;29;20226;-69
2023/04/08 06:34:59;;;;;;;6.40;5.93;;;6.10;99.90;;;;;;4905764;29;20213;-69
2023/04/08 06:37:26;;;;;;;7.88;3.08;;;6.10;99.90;;;;;;4891988;29;20246;-70
2023/04/08 06:39:53;;;;;;;5.30;2.53;;;6.10;99.90;;;;;;4893503;29;20211;-70
2023/04/08 06:42:19;;;;;;;5.07;4.53;;;6.10;99.90;;;;;;4883400;29;20212;-70
2023/04/08 06:44:46;;;;;;;3.13;2.65;;;6.10;99.90;;;;;;4899731;29;20659;-69
2023/04/08 06:47:13;;;;;;;3.30;3.05;;;6.20;99.90;;;;;;4889017;29;20243;-70
2023/04/08 06:49:40;;;;;;;4.43;4.22;;;6.20;99.90;;;;;;4897421;29;20210;-69
2023/04/08 06:52:08;;;;;;;2.92;2.72;;;6.20;99.90;;;;;;4903178;29;20217;-69
2023/04/08 06:54:35;;;;;;;5.55;5.10;;;6.10;99.90;;;;;;4887728;29;20207;-69
2023/04/08 06:57:03;;;;;;;5.43;4.28;;;6.20;99.90;;;;;;4894881;29;20260;-70
2023/04/08 06:59:29;;;;;;;4.63;4.18;;;6.20;99.90;;;;;;4899157;29;20214;-68
2023/04/08 07:01:56;;;;;;;5.80;5.00;;;6.20;99.90;;;;;;4904312;29;20211;-69
2023/04/08 07:04:23;;;;;;;4.68;3.47;;;6.20;99.90;;;;;;4898325;29;20216;-70
2023/04/08 07:06:51;;;;;;;6.18;2.90;;;6.30;99.90;;;;;;4888049;29;20221;-69
2023/04/08 07:09:19;;;;;;;5.78;3.15;;;6.30;99.90;;;;;;4878699;29;20244;-69
2023/04/08 07:11:46;;;;;;;3.08;2.92;;;6.30;99.90;;;;;;4900321;29;20241;-69
2023/04/08 07:14:12;;;;;;;5.97;4.32;;;6.20;99.90;;;;;;4893299;29;20264;-69
2023/04/08 07:16:39;;;;;;;4.03;3.78;;;6.20;99.90;;;;;;4880975;29;20224;-70
2023/04/08 07:19:06;;;;;;;2.50;2.30;;;6.20;99.90;;;;;;4896272;29;20588;-70
2023/04/08 07:21:32;;;;;;;2.72;2.53;;;6.20;99.90;;;;;;4891500;29;20247;-70
2023/04/08 07:23:59;;;;;;;5.60;3.80;;;6.20;99.90;;;;;;4890910;29;20642;-70
2023/04/08 07:26:28;;;;;;;5.00;4.70;;;6.20;99.90;;;;;;4891317;29;20251;-69
2023/04/08 07:28:54;;;;;;;4.57;4.20;;;6.20;99.90;;;;;;4887803;29;20238;-69
2023/04/08 07:31:21;;;;;;;4.70;3.15;;;6.30;99.90;;;;;;4894656;29;20215;-70
2023/04/08 07:33:48;;;;;;;3.58;2.38;;;6.30;99.90;;;;;;4900764;29;20207;-70
2023/04/08 07:36:17;;;;;;;3.53;2.90;;;6.30;99.90;;;;;;4887628;29;20223;-70
2023/04/08 07:38:43;;;;;;;2.22;2.13;;;6.40;99.90;;;;;;4900284;29;20230;-70
2023/04/08 07:41:10;;;;;;;2.35;2.25;;;6.40;99.90;;;;;;4890504;29;20295;-71
2023/04/08 07:43:38;;;;;;;3.15;3.05;;;6.40;99.90;;;;;;4891602;29;20211;-69
2023/04/08 07:46:06;;;;;;;2.55;2.40;;;6.50;99.90;;;;;;4885239;29;20255;-70
2023/04/08 07:48:34;;;;;;;6.38;5.00;;;6.50;99.90;;;;;;4885756;29;20228;-70
2023/04/08 07:51:03;;;;;;;4.80;4.22;;;6.50;99.90;;;;;;4882915;29;20649;-69
2023/04/08 07:53:30;;;;;;;2.78;2.53;;;6.60;99.90;;;;;;4904636;29;20222;-69
2023/04/08 07:55:57;;;;;;;5.10;3.78;;;6.60;99.90;;;;;;4902120;29;20227;-69
2023/04/08 07:58:25;;;;;;;4.35;4.15;;;6.60;99.90;;;;;;4900189;29;20249;-69
2023/04/08 08:00:53;;;;;;;4.13;3.83;;;6.60;99.90;;;;;;4895860;29;20586;-69
2023/04/08 08:03:20;;;;;;;11.77;4.03;;;6.60;99.90;;;;;;4895098;29;20214;-69
2023/04/08 08:05:46;;;;;;;5.38;3.80;;;6.60;99.90;;;;;;4905736;29;20209;-69
2023/04/08 08:08:13;;;;;;;6.10;3.75;;;6.70;99.90;;;;;;4889566;29;20700;-69
2023/04/08 08:10:40;;;;;;;6.80;3.38;;;6.70;99.90;;;;;;4887000;29;20219;-68
2023/04/08 08:13:07;;;;;;;6.82;3.45;;;6.70;99.90;;;;;;4888179;29;20234;-70
2023/04/08 08:15:34;;;;;;;4.80;4.47;;;6.70;99.90;;;;;;4893121;29;20681;-69
2023/04/08 08:18:02;;;;;;;3.58;2.72;;;6.70;99.90;;;;;;4880095;29;20244;-69
2023/04/08 08:20:29;;;;;;;4.40;2.75;;;6.70;99.90;;;;;;4894548;29;20691;-68
2023/04/08 08:22:56;;;;;;;6.00;3.05;;;6.70;99.90;;;;;;4900013;29;20211;-68
2023/04/08 08:25:23;;;;;;;5.30;3.30;;;6.70;99.90;;;;;;4906033;29;20214;-70
2023/04/08 08:27:50;;;;;;;2.97;2.78;;;6.70;99.90;;;;;;4899414;29;20231;-70
2023/04/08 08:30:18;;;;;;;5.75;3.97;;;6.70;99.90;;;;;;4894841;29;20638;-70
2023/04/08 08:32:46;;;;;;;8.30;4.72;;;6.70;99.90;;;;;;4886835;29;20234;-70
2023/04/08 08:35:14;;;;;;;3.75;3.25;;;6.70;99.90;;;;;;4902719;29;20207;-70
2023/04/08 08:37:40;;;;;;;6.90;2.10;;;6.80;99.90;;;;;;4895824;29;20231;-70
2023/04/08 08:40:09;;;;;;;8.60;4.10;;;6.70;99.90;;;;;;4886679;29;20661;-73
2023/04/08 08:42:36;;;;;;;4.25;3.63;;;6.70;99.90;;;;;;4892857;29;20203;-71
2023/04/08 08:45:03;;;;;;;2.17;2.03;;;6.80;99.90;;;;;;4891176;29;20214;-70
2023/04/08 08:47:31;;;;;;;4.53;4.18;;;6.50;99.90;;;;;;4903416;29;20246;-69
2023/04/08 08:49:58;;;;;;;15.40;4.75;;;6.80;99.90;;;;;;4903714;29;20210;-71
2023/04/08 08:52:26;;;;;;;2.42;2.22;;;6.80;99.90;;;;;;4888274;29;20211;-70
2023/04/08 08:54:58;;;;;;;2.88;2.38;;;6.80;99.90;;;;;;4898440;29;20233;-69
2023/04/08 08:57:25;;;;;;;4.35;4.03;;;6.80;99.90;;;;;;4898195;29;20250;-70
2023/04/08 08:59:52;;;;;;;3.75;2.33;;;6.80;99.90;;;;;;4899721;29;20222;-70
2023/04/08 09:02:27;;;;;;;3.72;3.50;;;6.80;99.90;;;;;;4886846;29;20227;-69
2023/04/08 09:04:58;;;;;;;9.00;4.97;;;6.90;99.90;;;;;;4904242;29;20672;-69
2023/04/08 09:07:27;;;;;;;12.68;4.07;;;6.90;99.90;;;;;;4912808;29;20222;-70
2023/04/08 09:09:55;;;;;;;3.80;2.58;;;6.90;99.90;;;;;;4915144;29;20217;-71
2023/04/08 09:12:22;;;;;;;7.03;3.20;;;6.90;99.90;;;;;;4880961;29;20208;-69
2023/04/08 09:14:50;;;;;;;5.20;4.47;;;6.90;99.90;;;;;;4882429;29;20264;-69
2023/04/08 09:17:30;;;;;;;5.82;3.80;;;7.00;99.90;;;;;;4908562;29;20302;-70
2023/04/08 09:20:10;;;;;;;3.63;2.38;;;7.10;99.90;;;;;;4905035;29;20693;-70
2023/04/08 09:22:56;;;;;;;3.08;2.88;;;7.20;99.90;;;;;;4899995;29;20222;-69
2023/04/08 09:25:24;;;;;;;5.68;4.07;;;7.20;99.90;;;;;;4898828;29;20739;-70
2023/04/08 09:27:51;;;;;;;5.95;5.45;;;7.10;99.90;;;;;;4893513;29;20364;-70
2023/04/08 09:30:19;;;;;;;7.25;4.57;;;7.00;99.90;;;;;;4905186;29;20222;-69
2023/04/08 09:32:49;;;;;;;8.25;4.68;;;7.10;99.90;;;;;;4899122;29;20214;-69
2023/04/08 09:35:18;;;;;;;2.83;2.70;;;7.10;99.90;;;;;;4886366;29;20592;-70
2023/04/08 09:37:45;;;;;;;4.18;3.47;;;7.20;99.90;;;;;;4884127;29;20696;-69
2023/04/08 09:40:14;;;;;;;4.15;3.85;;;7.20;99.90;;;;;;4893106;29;20206;-69
2023/04/08 09:42:45;;;;;;;9.38;5.22;;;7.20;99.90;;;;;;4891939;29;20259;-69
2023/04/08 09:45:13;;;;;;;6.78;4.68;;;7.20;99.90;;;;;;4895656;29;20217;-69
2023/04/08 09:47:51;;;;;;;3.28;2.97;;;7.30;99.90;;;;;;4878680;29;20303;-69
2023/04/08 09:50:24;;;;;;;6.63;5.00;;;7.30;99.90;;;;;;4885496;29;20211;-70
2023/04/08 09:52:56;;;;;;;8.38;3.83;;;7.30;99.90;;;;;;4890480;29;20210;-71
2023/04/08 09:55:27;;;;;;;13.30;2.35;;;7.30;99.90;;;;;;4881367;29;20216;-71
2023/04/08 09:57:59;;;;;;;9.38;7.00;;;7.20;99.90;;;;;;4889681;29;20236;-69
2023/04/08 10:00:32;;;;;;;9.07;3.70;;;7.30;99.90;;;;;;4894089;29;20268;-70
2023/04/08 10:03:05;;;;;;;4.75;3.25;;;7.40;99.90;;;;;;4899135;29;20214;-70
2023/04/08 10:05:32;;;;;;;9.68;4.35;;;7.40;99.90;;;;;;4888708;29;20215;-70
2023/04/08 10:07:59;;;;;;;6.85;4.45;;;7.50;99.90;;;;;;4896737;29;20670;-71
2023/04/08 10:10:27;;;;;;;20.33;5.45;;;7.60;99.90;;;;;;4904928;29;20210;-70
2023/04/08 10:12:54;;;;;;;7.25;3.10;;;7.60;99.90;;;;;;4896000;29;20211;-70
2023/04/08 10:15:26;;;;;;;6.75;4.40;;;7.60;99.90;;;;;;4893039;29;20215;-71
2023/04/08 10:17:55;;;;;;;3.50;3.38;;;7.60;99.90;;;;;;4902167;29;20317;-70
2023/04/08 10:20:49;;;;;;;8.68;3.83;;;7.60;99.90;;;;;;4924875;23;20253;-69
2023/04/08 10:23:17;;;;;;;4.60;4.20;;;7.60;99.90;;;;;;4883107;29;20217;-68
2023/04/08 10:25:46;;;;;;;5.28;3.55;;;7.60;99.90;;;;;;4912648;29;20206;-68
2023/04/08 10:28:25;;;;;;;5.13;3.83;;;7.60;99.90;;;;;;4913995;29;20214;-68
2023/04/08 10:30:54;;;;;;;2.65;2.65;;;7.60;99.90;;;;;;4894758;29;20238;-68
2023/04/08 10:33:23;;;;;;;5.45;4.25;;;7.60;99.90;;;;;;4896167;29;20318;-67
2023/04/08 10:35:53;;;;;;;4.68;2.63;;;7.60;99.90;;;;;;4894353;29;20215;-68
2023/04/08 10:38:20;;;;;;;4.38;3.55;;;7.70;99.90;;;;;;4898536;29;20235;-69
2023/04/08 10:40:50;;;;;;;5.65;3.63;;;7.70;99.90;;;;;;4897410;29;20266;-67
2023/04/08 10:43:17;;;;;;;3.67;3.35;;;7.70;99.90;;;;;;4901172;29;20215;-68
2023/04/08 10:45:44;;;;;;;0.63;0.63;;;7.70;99.90;;;;;;4906758;29;20294;-68
2023/04/08 10:48:16;;;;;;;3.75;2.60;;;7.60;99.90;;;;;;4910458;29;20218;-68
2023/04/08 10:50:43;;;;;;;9.07;3.58;;;7.70;99.90;;;;;;4890559;29;20266;-68
2023/04/08 10:53:11;;;;;;;3.53;2.05;;;7.70;99.90;;;;;;4905657;29;20687;-68
2023/04/08 10:55:38;;;;;;;5.75;3.75;;;7.70;99.90;;;;;;4903565;29;20210;-68
2023/04/08 10:58:15;;;;;;;4.78;3.80;;;7.70;99.90;;;;;;4907515;29;20227;-67
2023/04/08 11:00:43;;;;;;;9.18;5.05;;;7.70;99.90;;;;;;4909688;29;20235;-68
2023/04/08 11:03:11;;;;;;;7.35;2.53;;;7.80;99.90;;;;;;4915418;29;21296;-67
2023/04/08 11:05:40;;;;;;;9.30;5.75;;;7.80;99.90;;;;;;4914751;29;20203;-67
2023/04/08 11:08:07;;;;;;;5.22;2.50;;;7.80;99.90;;;;;;4906796;29;20211;-67
2023/04/08 11:10:37;;;;;;;5.93;3.95;;;7.80;99.90;;;;;;4904330;29;20670;-67
2023/04/08 11:13:07;;;;;;;6.47;3.85;;;7.80;99.90;;;;;;4898316;29;20213;-67
2023/04/08 11:15:36;;;;;;;4.18;2.92;;;7.80;99.90;;;;;;4897124;29;20210;-68
2023/04/08 11:18:04;;;;;;;5.85;3.88;;;7.80;99.90;;;;;;4894502;29;20712;-66
2023/04/08 11:20:33;;;;;;;7.88;5.20;;;7.80;99.90;;;;;;4896250;29;20322;-69
2023/04/08 11:23:00;;;;;;;7.07;3.95;;;7.90;99.90;;;;;;4896499;29;20211;-66
2023/04/08 11:25:27;;;;;;;5.28;3.72;;;8.00;99.90;;;;;;4896903;29;20215;-67
2023/04/08 11:27:54;;;;;;;6.70;6.10;;;8.00;99.90;;;;;;4896240;29;20563;-67
2023/04/08 11:30:21;;;;;;;4.30;3.05;;;8.00;99.90;;;;;;4888770;29;20230;-67
2023/04/08 11:32:50;;;;;;;5.75;4.25;;;8.10;99.90;;;;;;4886201;29;20604;-67
2023/04/08 11:35:17;;;;;;;4.63;3.55;;;8.10;99.90;;;;;;4887741;29;20274;-68
2023/04/08 11:37:46;;;;;;;4.25;3.95;;;8.10;99.90;;;;;;4891812;29;20681;-68
2023/04/08 11:40:13;;;;;;;5.35;4.55;;;8.10;99.90;;;;;;4892948;29;20664;-69
2023/04/08 11:42:40;;;;;;;5.20;4.05;;;8.10;99.90;;;;;;4891211;29;20207;-68
2023/04/08 11:45:11;;;;;;;16.70;4.90;;;8.10;99.90;;;;;;4894326;29;20215;-70
2023/04/08 11:47:38;;;;;;;17.13;5.55;;;8.20;99.90;;;;;;4895886;29;20219;-69
2023/04/08 11:50:08;;;;;;;7.28;4.53;;;8.10;99.90;;;;;;4894755;29;20334;-69
2023/04/08 11:52:45;;;;;;;9.63;5.30;;;8.10;99.90;;;;;;4895061;29;20613;-70
2023/04/08 11:55:12;;;;;;;7.43;3.53;;;8.10;99.90;;;;;;4895103;29;20556;-71
2023/04/08 11:57:39;;;;;;;8.82;4.10;;;8.10;99.90;;;;;;4896517;29;20722;-70
2023/04/08 12:00:08;;;;;;;10.73;4.57;;;8.10;99.90;;;;;;4895869;29;20340;-69
2023/04/08 12:02:35;;;;;;;5.47;3.65;;;8.10;99.90;;;;;;4896110;29;20574;-70
2023/04/08 12:05:02;;;;;;;9.18;6.90;;;8.10;99.90;;;;;;4892861;29;20300;-69
2023/04/08 12:07:31;;;;;;;3.70;3.50;;;8.10;99.90;;;;;;4895346;29;20204;-68
2023/04/08 12:09:57;;;;;;;8.32;5.82;;;8.20;99.90;;;;;;4886752;29;20680;-69
2023/04/08 12:12:25;;;;;;;9.27;5.90;;;8.20;99.90;;;;;;4895694;29;20586;-71
2023/04/08 12:14:52;;;;;;;6.72;5.28;;;8.20;99.90;;;;;;4881688;29;20606;-71
2023/04/08 12:17:18;;;;;;;3.75;3.25;;;8.10;99.90;;;;;;4897229;29;20286;-70
2023/04/08 12:19:45;;;;;;;8.25;6.50;;;8.10;99.90;;;;;;4893369;29;20245;-69
2023/04/08 12:22:12;;;;;;;8.15;3.45;;;8.10;99.90;;;;;;4895415;29;20239;-69
2023/04/08 12:24:40;;;;;;;3.80;3.60;;;8.10;99.90;;;;;;4895194;29;20668;-69
2023/04/08 12:27:07;;;;;;;9.13;4.25;;;8.00;99.90;;;;;;4895839;29;20214;-70
2023/04/08 12:29:34;;;;;;;9.70;5.30;;;8.00;99.90;;;;;;4894412;29;20235;-70
2023/04/08 12:32:01;;;;;;;5.10;3.47;;;8.10;99.90;;;;;;4894434;29;20247;-69
2023/04/08 12:34:28;;;;;;;10.43;4.50;;;8.10;99.90;;;;;;4895183;29;20219;-69
2023/04/08 12:36:55;;;;;;;7.88;4.18;;;8.00;99.90;;;;;;4892596;29;20231;-69
2023/04/08 12:39:22;;;;;;;3.42;3.20;;;8.10;99.90;;;;;;4887022;29;20239;-69
2023/04/08 12:41:50;;;;;;;9.57;6.20;;;8.10;99.90;;;;;;4895209;29;20274;-69
2023/04/08 12:44:18;;;;;;;8.82;4.20;;;8.10;99.90;;;;;;4895618;29;20291;-70
2023/04/08 12:46:44;;;;;;;6.43;5.25;;;8.10;99.90;;;;;;4895299;29;20218;-70
2023/04/08 12:49:11;;;;;;;4.38;3.35;;;8.00;99.90;;;;;;4889038;29;20647;-68
2023/04/08 12:51:38;;;;;;;7.25;5.85;;;8.10;99.90;;;;;;4887320;29;20207;-71
2023/04/08 12:54:05;;;;;;;10.07;5.00;;;8.10;99.90;;;;;;4894090;29;20302;-70
2023/04/08 12:56:33;;;;;;;7.50;5.43;;;8.00;99.90;;;;;;4881367;29;20766;-70
2023/04/08 12:59:01;;;;;;;5.72;3.65;;;8.00;99.90;;;;;;4890306;29;20270;-69
2023/04/08 13:01:29;;;;;;;6.50;3.97;;;7.90;99.90;;;;;;4896032;29;20253;-68
2023/04/08 13:03:56;;;;;;;9.80;5.70;;;7.90;99.90;;;;;;4895803;29;20260;-69
2023/04/08 13:06:23;;;;;;;4.05;3.70;;;8.00;99.90;;;;;;4895314;29;20210;-70
2023/04/08 13:08:49;;;;;;;2.47;2.38;;;8.00;99.90;;;;;;4894735;29;20211;-69
2023/04/08 13:11:16;;;;;;;9.10;5.38;;;8.00;99.90;;;;;;4895017;29;20210;-70
2023/04/08 13:13:45;;;;;;;9.25;5.53;;;8.10;99.90;;;;;;4893650;29;20234;-68
2023/04/08 13:16:14;;;;;;;7.15;5.63;;;8.10;99.90;;;;;;4893709;29;20212;-68
2023/04/08 13:18:41;;;;;;;11.68;3.45;;;8.10;99.90;;;;;;4882994;29;20234;-68
2023/04/08 13:21:08;;;;;;;6.40;4.90;;;8.20;99.90;;;;;;4893208;29;20216;-67
2023/04/08 13:23:35;;;;;;;5.60;5.07;;;8.30;99.90;;;;;;4886924;29;20213;-68
2023/04/08 13:26:02;;;;;;;6.40;5.07;;;8.40;99.90;;;;;;4892181;29;20219;-68
2023/04/08 13:28:29;;;;;;;8.38;4.75;;;8.40;99.90;;;;;;4893833;29;20238;-68
2023/04/08 13:30:55;;;;;;;4.93;4.32;;;8.40;99.90;;;;;;4894020;29;20239;-67
2023/04/08 13:33:23;;;;;;;5.00;4.38;;;8.50;99.90;;;;;;4894110;29;20218;-67
2023/04/08 13:35:52;;;;;;;13.38;5.07;;;8.50;99.90;;;;;;4889385;29;20572;-69
2023/04/08 13:38:19;;;;;;;5.32;4.75;;;8.60;99.90;;;;;;4892433;29;20242;-68
2023/04/08 13:40:46;;;;;;;5.10;4.30;;;8.60;99.90;;;;;;4893346;29;20346;-68
2023/04/08 13:43:13;;;;;;;9.05;3.60;;;8.60;99.90;;;;;;4895170;29;20211;-68
2023/04/08 13:45:40;;;;;;;4.65;4.25;;;8.60;99.90;;;;;;4895171;29;20207;-68
2023/04/08 13:48:07;;;;;;;5.80;2.72;;;8.70;99.90;;;;;;4893764;29;20217;-68
2023/04/08 13:50:35;;;;;;;5.53;3.88;;;8.70;99.90;;;;;;4895179;29;20306;-68
2023/04/08 13:53:02;;;;;;;4.82;4.10;;;8.80;99.90;;;;;;4895247;29;20211;-68
2023/04/08 13:55:28;;;;;;;4.22;3.90;;;8.80;99.90;;;;;;4892430;29;20218;-68
2023/04/08 13:57:55;;;;;;;6.65;4.78;;;8.80;99.90;;;;;;4894032;29;20247;-68
2023/04/08 14:00:24;;;;;;;4.53;4.13;;;8.80;99.90;;;;;;4893615;29;20370;-68
2023/04/08 14:02:51;;;;;;;9.20;6.53;;;8.80;99.90;;;;;;4895246;29;20207;-68
2023/04/08 14:05:17;;;;;;;5.95;4.50;;;8.70;99.90;;;;;;4894260;29;20211;-68
2023/04/08 14:07:45;;;;;;;3.78;3.58;;;8.60;99.90;;;;;;4892668;29;20207;-68
2023/04/08 14:10:13;;;;;;;5.05;4.65;;;8.70;99.90;;;;;;4897275;29;20231;-68
2023/04/08 14:12:40;;;;;;;6.93;4.25;;;8.60;99.90;;;;;;4896765;29;20279;-68
2023/04/08 14:15:08;;;;;;;7.85;5.03;;;8.70;99.90;;;;;;4897155;29;20238;-68
2023/04/08 14:17:35;;;;;;;3.35;3.03;;;8.70;99.90;;;;;;4897563;29;20229;-68
2023/04/08 14:20:02;;;;;;;5.30;4.75;;;8.80;99.90;;;;;;4898487;29;20247;-68
2023/04/08 14:22:29;;;;;;;4.38;2.95;;;8.80;99.90;;;;;;4897303;29;20238;-68
2023/04/08 14:24:57;;;;;;;9.93;6.10;;;8.90;99.90;;;;;;4896333;29;20222;-68
2023/04/08 14:27:24;;;;;;;3.53;3.22;;;8.90;99.90;;;;;;4896305;29;20211;-68
2023/04/08 14:29:50;;;;;;;4.38;4.07;;;8.80;99.90;;;;;;4897984;29;20362;-68
2023/04/08 14:32:17;;;;;;;5.13;4.10;;;8.80;99.90;;;;;;4897320;29;20303;-68
2023/04/08 14:34:44;;;;;;;6.70;4.00;;;8.90;99.90;;;;;;4896517;29;20207;-68
2023/04/08 14:37:11;;;;;;;8.65;5.13;;;8.90;99.90;;;;;;4898775;29;20306;-66
2023/04/08 14:39:38;;;;;;;6.93;3.90;;;8.90;99.90;;;;;;4896704;29;20329;-68
2023/04/08 14:42:06;;;;;;;4.93;4.50;;;8.90;99.90;;;;;;4898056;29;20207;-68
2023/04/08 14:44:33;;;;;;;8.30;4.75;;;8.90;99.90;;;;;;4897191;29;20350;-69
2023/04/08 14:47:00;;;;;;;4.03;3.67;;;8.90;99.90;;;;;;4894285;29;20239;-66
2023/04/08 14:49:26;;;;;;;5.03;4.05;;;8.90;99.90;;;;;;4895044;29;20231;-68
2023/04/08 14:51:53;;;;;;;4.97;3.72;;;8.90;99.90;;;;;;4897101;29;20214;-67
2023/04/08 14:54:20;;;;;;;11.50;5.30;;;8.90;99.90;;;;;;4894763;29;20226;-68
2023/04/08 14:56:47;;;;;;;4.63;4.25;;;8.90;99.90;;;;;;4895617;29;20235;-68
2023/04/08 14:59:15;;;;;;;5.45;5.07;;;8.80;99.90;;;;;;4897199;29;20326;-69
2023/04/08 15:01:44;;;;;;;3.78;3.63;;;8.80;99.90;;;;;;4897695;29;20207;-68
2023/04/08 15:04:11;;;;;;;6.43;3.45;;;8.80;99.90;;;;;;4897654;29;20259;-68
2023/04/08 15:06:39;;;;;;;7.93;5.47;;;8.80;99.90;;;;;;4897384;29;20636;-69
2023/04/08 15:09:06;;;;;;;7.53;4.35;;;8.90;99.90;;;;;;4895147;29;20315;-68
2023/04/08 15:11:32;;;;;;;7.88;5.88;;;8.90;99.90;;;;;;4891017;29;20220;-68
2023/04/08 15:13:59;;;;;;;11.65;5.82;;;8.90;99.90;;;;;;4897156;29;20211;-68
2023/04/08 15:16:27;;;;;;;6.93;4.35;;;8.90;99.90;;;;;;4895670;29;20589;-68
2023/04/08 15:18:58;;;;;;;11.30;4.80;;;8.90;99.90;;;;;;4896535;29;20231;-68
2023/04/08 15:21:25;;;;;;;9.32;6.18;;;8.90;99.90;;;;;;4896740;29;20200;-68
2023/04/08 15:23:52;;;;;;;9.32;6.07;;;8.80;99.90;;;;;;4896001;29;20211;-68
2023/04/08 15:26:19;;;;;;;7.20;6.50;;;8.80;99.90;;;;;;4896481;29;20216;-67
2023/04/08 15:28:46;;;;;;;8.05;5.47;;;8.80;99.90;;;;;;4895414;29;20213;-68
2023/04/08 15:31:12;;;;;;;11.90;7.45;;;8.80;99.90;;;;;;4894831;29;20208;-68
2023/04/08 15:33:41;;;;;;;16.70;5.10;;;8.80;99.90;;;;;;4892980;29;20208;-68
2023/04/08 15:36:08;;;;;;;8.50;5.35;;;8.80;99.90;;;;;;4884021;29;20817;-68
2023/04/08 15:38:35;;;;;;;10.73;7.97;;;8.70;99.90;;;;;;4893851;29;20227;-68
2023/04/08 15:41:02;;;;;;;7.32;5.53;;;8.70;99.90;;;;;;4889310;29;20234;-68
2023/04/08 15:43:30;;;;;;;14.13;8.77;;;8.70;99.90;;;;;;4891922;29;20223;-68
2023/04/08 15:45:57;;;;;;;10.10;7.25;;;8.70;99.90;;;;;;4894843;29;20211;-68
2023/04/08 15:48:23;;;;;;;9.43;5.97;;;8.60;99.90;;;;;;4895160;29;20301;-67
2023/04/08 15:50:52;;;;;;;10.13;6.30;;;8.60;99.90;;;;;;4895542;29;20243;-66
2023/04/08 15:53:19;;;;;;;11.45;9.15;;;8.60;99.90;;;;;;4888984;29;20270;-67
2023/04/08 15:55:46;;;;;;;7.25;6.28;;;8.60;99.90;;;;;;4894205;29;20215;-68
2023/04/08 15:58:12;;;;;;;14.55;9.30;;;8.50;99.90;;;;;;4895951;29;20687;-68
2023/04/08 16:00:39;;;;;;;12.70;7.35;;;8.60;99.90;;;;;;4897403;29;20598;-68
2023/04/08 16:03:10;;;;;;;9.90;4.90;;;8.60;99.90;;;;;;4894824;29;20219;-68
2023/04/08 16:05:38;;;;;;;12.43;8.48;;;8.50;99.90;;;;;;4895578;29;20675;-68
2023/04/08 16:08:06;;;;;;;13.60;12.20;;;8.50;99.90;;;;;;4894869;29;20211;-67
2023/04/08 16:10:33;;;;;;;11.05;9.90;;;8.40;99.90;;;;;;4894297;29;20232;-68
2023/04/08 16:13:00;;;;;;;11.32;8.07;;;8.40;99.90;;;;;;4896121;29;20223;-68
2023/04/08 16:15:27;;;;;;;10.98;8.50;;;8.40;99.90;;;;;;4894488;29;20211;-68
2023/04/08 16:17:54;;;;;;;10.55;9.50;;;8.40;99.90;;;;;;4892016;29;20207;-67
2023/04/08 16:20:21;;;;;;;12.35;7.85;;;8.30;99.90;;;;;;4896289;29;20518;-67
2023/04/08 16:22:48;;;;;;;10.88;8.18;;;8.30;99.90;;;;;;4887105;23;20677;-70
2023/04/08 16:25:17;;;;;;;17.52;7.47;;;8.30;99.90;;;;;;4872372;29;20204;-70
2023/04/08 16:27:43;;;;;;;8.63;7.78;;;8.30;99.90;;;;;;4879078;29;20204;-70
2023/04/08 16:30:11;;;;;;;11.63;8.27;;;8.30;99.90;;;;;;4884368;29;20215;-71
2023/04/08 16:32:37;;;;;;;13.23;7.82;;;8.20;99.90;;;;;;4864953;29;20244;-68
2023/04/08 16:35:05;;;;;;;12.90;8.85;;;8.30;99.90;;;;;;4858096;29;20227;-69
2023/04/08 16:37:32;;;;;;;11.57;7.05;;;8.30;99.90;;;;;;4866093;29;20224;-69
2023/04/08 16:39:59;;;;;;;16.75;9.52;;;8.30;99.90;;;;;;4850784;29;20328;-70
2023/04/08 16:42:27;;;;;;;9.40;6.68;;;8.30;99.90;;;;;;4859706;29;20232;-68
2023/04/08 16:44:56;;;;;;;9.35;8.50;;;8.30;99.90;;;;;;4859537;29;20213;-68
2023/04/08 16:47:23;;;;;;;11.75;7.30;;;8.20;99.90;;;;;;4869127;29;20304;-69
2023/04/08 16:49:51;;;;;;;12.48;6.60;;;8.20;99.90;;;;;;4855212;29;20268;-69
2023/04/08 16:52:18;;;;;;;11.25;7.63;;;8.20;99.90;;;;;;4863040;29;20291;-68
2023/04/08 16:54:45;;;;;;;14.75;9.95;;;8.10;99.90;;;;;;4860567;29;20205;-69
2023/04/08 16:57:12;;;;;;;20.65;10.25;;;8.10;99.90;;;;;;4857205;29;20217;-68